Maidstone, Canada
Current Conditions -  °F | °C
As of 2:00 AM on Friday 31 Oct 2014 (Local Time) from CYLL Reporting Station
Overcast Overcast  
Wind Chill: 21°   Ceiling: 1000
Heat Index: 32°   Visibility: 9mi
Dew Point: 28°   Wind: 17mph
Humidity: 87%   Direction: 150°SSE
Pressure: 30.01"   Gusts: 28mph
Location:  53.08°N, 109.3°W
Report Text: CYLL 310700Z AUTO 15015G24KT 9SM OVC010 00/M02 A3001 RMK SLP195
Loading
Personal Weather Stations






























Interactive Weather Map
Tropical Storm Tracking
New forecast layout! Learn more

10-Day Weather Forecast

Advertisements
Track Severe Weather on mobile